sensor_id;sensor_type;location;lat;lon;timestamp;temperature;humidity
56878;DHT22;42765;44.764;19.676;2022-09-28T00:01:23;13.60;99.90
56878;DHT22;42765;44.764;19.676;2022-09-28T00:03:52;13.50;99.90
56878;DHT22;42765;44.764;19.676;2022-09-28T00:06:20;13.50;99.90
56878;DHT22;42765;44.764;19.676;2022-09-28T00:08:47;13.50;99.90
56878;DHT22;42765;44.764;19.676;2022-09-28T00:11:15;13.50;99.90
56878;DHT22;42765;44.764;19.676;2022-09-28T00:13:44;13.40;99.90
56878;DHT22;42765;44.764;19.676;2022-09-28T00:16:15;13.50;99.90
56878;DHT22;42765;44.764;19.676;2022-09-28T00:18:42;13.50;99.90
56878;DHT22;42765;44.764;19.676;2022-09-28T00:21:14;13.50;99.90
56878;DHT22;42765;44.764;19.676;2022-09-28T00:23:40;13.50;99.90
56878;DHT22;42765;44.764;19.676;2022-09-28T00:26:30;13.50;99.90
56878;DHT22;42765;44.764;19.676;2022-09-28T00:29:01;13.50;99.90
56878;DHT22;42765;44.764;19.676;2022-09-28T00:31:29;13.50;99.90
56878;DHT22;42765;44.764;19.676;2022-09-28T00:33:57;13.60;99.90
56878;DHT22;42765;44.764;19.676;2022-09-28T00:36:25;13.60;99.90
56878;DHT22;42765;44.764;19.676;2022-09-28T00:38:55;13.60;99.90
56878;DHT22;42765;44.764;19.676;2022-09-28T00:41:26;13.60;99.90
56878;DHT22;42765;44.764;19.676;2022-09-28T00:43:53;13.60;99.90
56878;DHT22;42765;44.764;19.676;2022-09-28T00:46:31;13.60;99.90
56878;DHT22;42765;44.764;19.676;2022-09-28T00:49:02;13.60;99.90
56878;DHT22;42765;44.764;19.676;2022-09-28T00:51:33;13.60;99.90
56878;DHT22;42765;44.764;19.676;2022-09-28T00:54:02;13.60;99.90
56878;DHT22;42765;44.764;19.676;2022-09-28T00:56:31;13.60;99.90
56878;DHT22;42765;44.764;19.676;2022-09-28T00:58:57;13.60;99.90
56878;DHT22;42765;44.764;19.676;2022-09-28T01:01:25;13.60;99.90
56878;DHT22;42765;44.764;19.676;2022-09-28T01:03:51;13.60;99.90
56878;DHT22;42765;44.764;19.676;2022-09-28T01:06:22;13.70;99.90
56878;DHT22;42765;44.764;19.676;2022-09-28T01:08:55;13.60;99.90
56878;DHT22;42765;44.764;19.676;2022-09-28T01:11:23;13.60;99.90
56878;DHT22;42765;44.764;19.676;2022-09-28T01:13:53;13.60;99.90
56878;DHT22;42765;44.764;19.676;2022-09-28T01:19:37;13.60;99.90
56878;DHT22;42765;44.764;19.676;2022-09-28T01:22:18;13.60;99.90
56878;DHT22;42765;44.764;19.676;2022-09-28T01:25:23;13.60;99.90
56878;DHT22;42765;44.764;19.676;2022-09-28T01:28:13;13.60;99.90
56878;DHT22;42765;44.764;19.676;2022-09-28T01:30:57;13.60;99.90
56878;DHT22;42765;44.764;19.676;2022-09-28T01:33:28;13.60;99.90
56878;DHT22;42765;44.764;19.676;2022-09-28T01:35:57;13.60;99.90
56878;DHT22;42765;44.764;19.676;2022-09-28T01:38:34;13.60;99.90
56878;DHT22;42765;44.764;19.676;2022-09-28T01:41:03;13.50;99.90
56878;DHT22;42765;44.764;19.676;2022-09-28T01:43:34;13.50;99.90
56878;DHT22;42765;44.764;19.676;2022-09-28T01:46:19;13.50;99.90
56878;DHT22;42765;44.764;19.676;2022-09-28T01:48:57;13.50;99.90
56878;DHT22;42765;44.764;19.676;2022-09-28T01:51:29;13.50;99.90
56878;DHT22;42765;44.764;19.676;2022-09-28T01:54:00;13.40;99.90
56878;DHT22;42765;44.764;19.676;2022-09-28T01:56:51;13.50;99.90
56878;DHT22;42765;44.764;19.676;2022-09-28T01:59:23;13.40;99.90
56878;DHT22;42765;44.764;19.676;2022-09-28T02:02:07;13.40;99.90
56878;DHT22;42765;44.764;19.676;2022-09-28T02:07:13;13.40;99.90
56878;DHT22;42765;44.764;19.676;2022-09-28T02:09:45;13.40;99.90
56878;DHT22;42765;44.764;19.676;2022-09-28T02:12:20;13.30;99.90
56878;DHT22;42765;44.764;19.676;2022-09-28T02:14:49;13.30;99.90
56878;DHT22;42765;44.764;19.676;2022-09-28T02:17:17;13.30;99.90
56878;DHT22;42765;44.764;19.676;2022-09-28T02:19:43;13.30;99.90
56878;DHT22;42765;44.764;19.676;2022-09-28T02:22:23;13.30;99.90
56878;DHT22;42765;44.764;19.676;2022-09-28T02:26:04;13.30;99.90
56878;DHT22;42765;44.764;19.676;2022-09-28T02:28:00;13.30;99.90
56878;DHT22;42765;44.764;19.676;2022-09-28T02:30:28;13.30;99.90
56878;DHT22;42765;44.764;19.676;2022-09-28T02:32:59;13.40;99.90
56878;DHT22;42765;44.764;19.676;2022-09-28T02:35:26;13.30;99.90
56878;DHT22;42765;44.764;19.676;2022-09-28T02:37:52;13.30;99.90
56878;DHT22;42765;44.764;19.676;2022-09-28T02:40:22;13.40;99.90
56878;DHT22;42765;44.764;19.676;2022-09-28T03:05:08;13.40;99.90
56878;DHT22;42765;44.764;19.676;2022-09-28T03:10:50;13.40;99.90
56878;DHT22;42765;44.764;19.676;2022-09-28T03:13:17;13.40;99.90
56878;DHT22;42765;44.764;19.676;2022-09-28T03:15:43;13.40;99.90
56878;DHT22;42765;44.764;19.676;2022-09-28T03:18:09;13.50;99.90
56878;DHT22;42765;44.764;19.676;2022-09-28T03:20:35;13.50;99.90
56878;DHT22;42765;44.764;19.676;2022-09-28T03:23:02;13.50;99.90
56878;DHT22;42765;44.764;19.676;2022-09-28T03:25:28;13.50;99.90
56878;DHT22;42765;44.764;19.676;2022-09-28T03:27:54;13.50;99.90
56878;DHT22;42765;44.764;19.676;2022-09-28T03:30:20;13.50;99.90
56878;DHT22;42765;44.764;19.676;2022-09-28T03:32:46;13.50;99.90
56878;DHT22;42765;44.764;19.676;2022-09-28T03:35:13;13.50;99.90
56878;DHT22;42765;44.764;19.676;2022-09-28T03:37:38;13.50;99.90
56878;DHT22;42765;44.764;19.676;2022-09-28T03:40:04;13.50;99.90
56878;DHT22;42765;44.764;19.676;2022-09-28T03:42:30;13.50;99.90
56878;DHT22;42765;44.764;19.676;2022-09-28T03:44:56;13.50;99.90
56878;DHT22;42765;44.764;19.676;2022-09-28T03:47:22;13.50;99.90
56878;DHT22;42765;44.764;19.676;2022-09-28T03:49:48;13.50;99.90
56878;DHT22;42765;44.764;19.676;2022-09-28T03:52:14;13.50;99.90
56878;DHT22;42765;44.764;19.676;2022-09-28T03:54:40;13.50;99.90
56878;DHT22;42765;44.764;19.676;2022-09-28T03:57:06;13.50;99.90
56878;DHT22;42765;44.764;19.676;2022-09-28T03:59:32;13.50;99.90
56878;DHT22;42765;44.764;19.676;2022-09-28T04:01:57;13.50;99.90
56878;DHT22;42765;44.764;19.676;2022-09-28T04:04:23;13.40;99.90
56878;DHT22;42765;44.764;19.676;2022-09-28T04:06:49;13.40;99.90
56878;DHT22;42765;44.764;19.676;2022-09-28T04:09:15;13.40;99.90
56878;DHT22;42765;44.764;19.676;2022-09-28T04:11:41;13.30;99.90
56878;DHT22;42765;44.764;19.676;2022-09-28T04:14:07;13.30;99.90
56878;DHT22;42765;44.764;19.676;2022-09-28T04:16:33;13.30;99.90
56878;DHT22;42765;44.764;19.676;2022-09-28T04:18:59;13.20;99.90
56878;DHT22;42765;44.764;19.676;2022-09-28T04:21:25;13.20;99.90
56878;DHT22;42765;44.764;19.676;2022-09-28T04:23:51;13.20;99.90
56878;DHT22;42765;44.764;19.676;2022-09-28T04:26:22;13.30;99.90
56878;DHT22;42765;44.764;19.676;2022-09-28T04:28:48;13.30;99.90
56878;DHT22;42765;44.764;19.676;2022-09-28T04:31:51;13.40;99.90
56878;DHT22;42765;44.764;19.676;2022-09-28T04:34:19;13.40;99.90
56878;DHT22;42765;44.764;19.676;2022-09-28T04:36:46;13.40;99.90
56878;DHT22;42765;44.764;19.676;2022-09-28T04:39:13;13.50;99.90
56878;DHT22;42765;44.764;19.676;2022-09-28T04:41:42;13.50;99.90
56878;DHT22;42765;44.764;19.676;2022-09-28T04:44:08;13.60;99.90
56878;DHT22;42765;44.764;19.676;2022-09-28T04:46:35;13.60;99.90
56878;DHT22;42765;44.764;19.676;2022-09-28T04:49:01;13.60;99.90
56878;DHT22;42765;44.764;19.676;2022-09-28T04:51:29;13.60;99.90
56878;DHT22;42765;44.764;19.676;2022-09-28T04:53:55;13.50;99.90
56878;DHT22;42765;44.764;19.676;2022-09-28T04:56:21;13.60;99.90
56878;DHT22;42765;44.764;19.676;2022-09-28T04:58:47;13.60;99.90
56878;DHT22;42765;44.764;19.676;2022-09-28T05:01:15;13.60;99.90
56878;DHT22;42765;44.764;19.676;2022-09-28T05:03:42;13.60;99.90
56878;DHT22;42765;44.764;19.676;2022-09-28T05:06:12;13.70;99.90
56878;DHT22;42765;44.764;19.676;2022-09-28T05:08:38;13.80;99.90
56878;DHT22;42765;44.764;19.676;2022-09-28T05:11:06;13.80;99.90
56878;DHT22;42765;44.764;19.676;2022-09-28T05:13:37;13.80;99.90
56878;DHT22;42765;44.764;19.676;2022-09-28T05:16:06;13.70;99.90
56878;DHT22;42765;44.764;19.676;2022-09-28T05:18:33;13.70;99.90
56878;DHT22;42765;44.764;19.676;2022-09-28T05:20:58;13.70;99.90
56878;DHT22;42765;44.764;19.676;2022-09-28T05:23:25;13.60;99.90
56878;DHT22;42765;44.764;19.676;2022-09-28T05:25:51;13.70;99.90
56878;DHT22;42765;44.764;19.676;2022-09-28T05:28:26;13.70;99.90
56878;DHT22;42765;44.764;19.676;2022-09-28T05:30:57;13.80;99.90
56878;DHT22;42765;44.764;19.676;2022-09-28T05:33:23;13.80;99.90
56878;DHT22;42765;44.764;19.676;2022-09-28T05:35:49;13.70;99.90
56878;DHT22;42765;44.764;19.676;2022-09-28T05:38:15;13.70;99.90
56878;DHT22;42765;44.764;19.676;2022-09-28T05:40:40;13.80;99.90
56878;DHT22;42765;44.764;19.676;2022-09-28T05:43:06;13.80;99.90
56878;DHT22;42765;44.764;19.676;2022-09-28T05:45:32;13.80;99.90
56878;DHT22;42765;44.764;19.676;2022-09-28T05:47:58;13.80;99.90
56878;DHT22;42765;44.764;19.676;2022-09-28T05:50:24;13.90;99.90
56878;DHT22;42765;44.764;19.676;2022-09-28T05:53:00;14.00;99.90
56878;DHT22;42765;44.764;19.676;2022-09-28T05:55:26;14.00;99.90
56878;DHT22;42765;44.764;19.676;2022-09-28T05:57:52;14.00;99.90
56878;DHT22;42765;44.764;19.676;2022-09-28T06:00:18;14.00;99.90
56878;DHT22;42765;44.764;19.676;2022-09-28T06:02:49;13.90;99.90
56878;DHT22;42765;44.764;19.676;2022-09-28T06:05:19;13.80;99.90
56878;DHT22;42765;44.764;19.676;2022-09-28T06:07:44;13.80;99.90
56878;DHT22;42765;44.764;19.676;2022-09-28T06:10:10;13.80;99.90
56878;DHT22;42765;44.764;19.676;2022-09-28T06:12:36;13.90;99.90
56878;DHT22;42765;44.764;19.676;2022-09-28T06:15:02;13.90;99.90
56878;DHT22;42765;44.764;19.676;2022-09-28T06:17:28;14.00;99.90
56878;DHT22;42765;44.764;19.676;2022-09-28T06:19:53;14.10;99.90
56878;DHT22;42765;44.764;19.676;2022-09-28T06:22:19;14.20;99.90
56878;DHT22;42765;44.764;19.676;2022-09-28T06:24:45;14.20;99.90
56878;DHT22;42765;44.764;19.676;2022-09-28T06:27:10;14.20;99.90
56878;DHT22;42765;44.764;19.676;2022-09-28T06:29:36;14.30;99.90
56878;DHT22;42765;44.764;19.676;2022-09-28T06:32:02;14.30;99.90
56878;DHT22;42765;44.764;19.676;2022-09-28T06:34:28;14.30;99.90
56878;DHT22;42765;44.764;19.676;2022-09-28T06:36:54;14.20;99.90
56878;DHT22;42765;44.764;19.676;2022-09-28T06:39:20;14.30;99.90
56878;DHT22;42765;44.764;19.676;2022-09-28T06:41:46;14.20;99.90
56878;DHT22;42765;44.764;19.676;2022-09-28T06:44:12;14.20;99.90
56878;DHT22;42765;44.764;19.676;2022-09-28T06:46:37;14.30;99.90
56878;DHT22;42765;44.764;19.676;2022-09-28T06:49:03;14.30;99.90
56878;DHT22;42765;44.764;19.676;2022-09-28T06:51:30;14.30;99.90
56878;DHT22;42765;44.764;19.676;2022-09-28T06:53:57;14.40;99.90
56878;DHT22;42765;44.764;19.676;2022-09-28T06:56:23;14.40;99.90
56878;DHT22;42765;44.764;19.676;2022-09-28T06:58:48;14.40;99.90
56878;DHT22;42765;44.764;19.676;2022-09-28T07:01:14;14.40;99.90
56878;DHT22;42765;44.764;19.676;2022-09-28T07:03:40;14.50;99.90
56878;DHT22;42765;44.764;19.676;2022-09-28T07:06:10;14.60;99.90
56878;DHT22;42765;44.764;19.676;2022-09-28T07:08:36;14.70;99.90
56878;DHT22;42765;44.764;19.676;2022-09-28T07:11:05;14.80;99.90
56878;DHT22;42765;44.764;19.676;2022-09-28T07:13:31;14.90;99.90
56878;DHT22;42765;44.764;19.676;2022-09-28T07:15:57;15.00;99.90
56878;DHT22;42765;44.764;19.676;2022-09-28T07:18:26;15.10;99.90
56878;DHT22;42765;44.764;19.676;2022-09-28T07:20:54;15.30;99.90
56878;DHT22;42765;44.764;19.676;2022-09-28T07:23:21;15.50;99.90
56878;DHT22;42765;44.764;19.676;2022-09-28T07:25:47;15.50;99.90
56878;DHT22;42765;44.764;19.676;2022-09-28T07:28:14;15.50;99.90
56878;DHT22;42765;44.764;19.676;2022-09-28T07:30:40;15.60;99.90
56878;DHT22;42765;44.764;19.676;2022-09-28T07:33:07;15.50;99.90
56878;DHT22;42765;44.764;19.676;2022-09-28T07:35:33;15.50;99.90
56878;DHT22;42765;44.764;19.676;2022-09-28T07:38:00;15.60;99.90
56878;DHT22;42765;44.764;19.676;2022-09-28T07:40:27;15.50;99.90
56878;DHT22;42765;44.764;19.676;2022-09-28T07:43:11;15.50;99.90
56878;DHT22;42765;44.764;19.676;2022-09-28T07:45:38;15.50;99.90
56878;DHT22;42765;44.764;19.676;2022-09-28T07:48:03;15.50;99.90
56878;DHT22;42765;44.764;19.676;2022-09-28T07:50:29;15.50;99.90
56878;DHT22;42765;44.764;19.676;2022-09-28T07:52:56;15.40;99.90
56878;DHT22;42765;44.764;19.676;2022-09-28T07:55:22;15.40;99.90
56878;DHT22;42765;44.764;19.676;2022-09-28T07:57:53;15.50;99.90
56878;DHT22;42765;44.764;19.676;2022-09-28T08:00:19;15.70;99.90
56878;DHT22;42765;44.764;19.676;2022-09-28T08:02:45;15.90;99.90
56878;DHT22;42765;44.764;19.676;2022-09-28T08:05:12;16.00;99.90
56878;DHT22;42765;44.764;19.676;2022-09-28T08:07:38;16.10;99.90
56878;DHT22;42765;44.764;19.676;2022-09-28T08:10:04;16.30;99.90
56878;DHT22;42765;44.764;19.676;2022-09-28T08:12:30;16.50;99.90
56878;DHT22;42765;44.764;19.676;2022-09-28T08:14:55;16.90;99.90
56878;DHT22;42765;44.764;19.676;2022-09-28T08:17:21;17.00;99.90
56878;DHT22;42765;44.764;19.676;2022-09-28T08:19:47;17.20;99.90
56878;DHT22;42765;44.764;19.676;2022-09-28T08:22:31;17.40;99.90
56878;DHT22;42765;44.764;19.676;2022-09-28T08:24:57;17.40;99.90
56878;DHT22;42765;44.764;19.676;2022-09-28T08:27:22;17.30;99.90
56878;DHT22;42765;44.764;19.676;2022-09-28T08:29:48;17.70;99.90
56878;DHT22;42765;44.764;19.676;2022-09-28T08:32:13;18.10;99.90
56878;DHT22;42765;44.764;19.676;2022-09-28T08:34:42;18.20;99.90
56878;DHT22;42765;44.764;19.676;2022-09-28T08:37:07;18.60;99.90
56878;DHT22;42765;44.764;19.676;2022-09-28T08:39:33;19.00;99.90
56878;DHT22;42765;44.764;19.676;2022-09-28T08:44:40;19.00;99.90
56878;DHT22;42765;44.764;19.676;2022-09-28T08:47:09;18.90;99.90
56878;DHT22;42765;44.764;19.676;2022-09-28T08:49:57;18.80;99.90
56878;DHT22;42765;44.764;19.676;2022-09-28T08:52:27;18.70;99.90
56878;DHT22;42765;44.764;19.676;2022-09-28T08:55:09;18.70;99.90
56878;DHT22;42765;44.764;19.676;2022-09-28T09:00:09;18.60;99.90
56878;DHT22;42765;44.764;19.676;2022-09-28T09:02:38;18.80;99.90
56878;DHT22;42765;44.764;19.676;2022-09-28T09:05:08;18.30;99.90
56878;DHT22;42765;44.764;19.676;2022-09-28T09:20:32;18.80;99.90
56878;DHT22;42765;44.764;19.676;2022-09-28T09:23:09;19.00;99.90
56878;DHT22;42765;44.764;19.676;2022-09-28T09:25:40;19.10;99.90
56878;DHT22;42765;44.764;19.676;2022-09-28T09:33:36;19.50;99.90
56878;DHT22;42765;44.764;19.676;2022-09-28T09:36:16;19.50;99.90
56878;DHT22;42765;44.764;19.676;2022-09-28T09:41:34;19.60;99.90
56878;DHT22;42765;44.764;19.676;2022-09-28T09:54:21;20.10;99.90
56878;DHT22;42765;44.764;19.676;2022-09-28T09:56:52;20.20;99.90
56878;DHT22;42765;44.764;19.676;2022-09-28T09:59:21;20.30;99.90
56878;DHT22;42765;44.764;19.676;2022-09-28T10:01:48;20.10;99.90
56878;DHT22;42765;44.764;19.676;2022-09-28T10:04:19;20.40;99.90
56878;DHT22;42765;44.764;19.676;2022-09-28T10:06:46;20.60;99.90
56878;DHT22;42765;44.764;19.676;2022-09-28T10:09:13;21.10;99.90
56878;DHT22;42765;44.764;19.676;2022-09-28T10:11:43;21.30;99.90
56878;DHT22;42765;44.764;19.676;2022-09-28T10:14:14;21.60;99.90
56878;DHT22;42765;44.764;19.676;2022-09-28T10:16:41;21.80;99.90
56878;DHT22;42765;44.764;19.676;2022-09-28T10:19:08;22.20;99.90
56878;DHT22;42765;44.764;19.676;2022-09-28T10:21:35;22.70;99.90
56878;DHT22;42765;44.764;19.676;2022-09-28T10:24:04;23.40;99.90
56878;DHT22;42765;44.764;19.676;2022-09-28T10:26:42;23.90;99.90
56878;DHT22;42765;44.764;19.676;2022-09-28T10:29:18;24.80;99.90
56878;DHT22;42765;44.764;19.676;2022-09-28T10:31:45;24.70;99.90
56878;DHT22;42765;44.764;19.676;2022-09-28T10:34:13;25.60;99.90
56878;DHT22;42765;44.764;19.676;2022-09-28T10:36:46;26.10;99.90
56878;DHT22;42765;44.764;19.676;2022-09-28T10:41:48;27.20;99.90
56878;DHT22;42765;44.764;19.676;2022-09-28T10:44:14;27.50;99.90
56878;DHT22;42765;44.764;19.676;2022-09-28T10:46:41;27.30;99.90
56878;DHT22;42765;44.764;19.676;2022-09-28T10:49:10;28.00;99.90
56878;DHT22;42765;44.764;19.676;2022-09-28T10:51:41;28.70;99.90
56878;DHT22;42765;44.764;19.676;2022-09-28T10:54:12;29.00;99.70
56878;DHT22;42765;44.764;19.676;2022-09-28T10:56:38;29.80;97.80
56878;DHT22;42765;44.764;19.676;2022-09-28T10:59:21;30.10;96.10
56878;DHT22;42765;44.764;19.676;2022-09-28T11:01:47;30.80;94.50
56878;DHT22;42765;44.764;19.676;2022-09-28T11:04:18;31.40;93.00
56878;DHT22;42765;44.764;19.676;2022-09-28T11:06:45;31.60;91.20
56878;DHT22;42765;44.764;19.676;2022-09-28T11:09:31;32.50;88.50
56878;DHT22;42765;44.764;19.676;2022-09-28T11:11:57;32.80;86.70
56878;DHT22;42765;44.764;19.676;2022-09-28T11:14:32;32.90;85.00
56878;DHT22;42765;44.764;19.676;2022-09-28T11:17:13;32.20;85.20
56878;DHT22;42765;44.764;19.676;2022-09-28T11:19:39;33.00;84.60
56878;DHT22;42765;44.764;19.676;2022-09-28T11:24:32;32.20;94.80
56878;DHT22;42765;44.764;19.676;2022-09-28T11:26:58;32.50;81.50
56878;DHT22;42765;44.764;19.676;2022-09-28T11:29:38;31.80;79.40
56878;DHT22;42765;44.764;19.676;2022-09-28T11:32:06;32.80;81.80
56878;DHT22;42765;44.764;19.676;2022-09-28T11:34:33;34.20;77.20
56878;DHT22;42765;44.764;19.676;2022-09-28T11:39:48;34.50;77.40
56878;DHT22;42765;44.764;19.676;2022-09-28T11:44:44;34.90;73.70
56878;DHT22;42765;44.764;19.676;2022-09-28T11:52:45;35.20;85.40
56878;DHT22;42765;44.764;19.676;2022-09-28T11:55:26;35.20;72.20
56878;DHT22;42765;44.764;19.676;2022-09-28T11:57:59;35.40;71.70
56878;DHT22;42765;44.764;19.676;2022-09-28T12:00:26;35.30;71.90
56878;DHT22;42765;44.764;19.676;2022-09-28T12:05:28;35.70;71.50
56878;DHT22;42765;44.764;19.676;2022-09-28T12:07:58;35.70;71.10
56878;DHT22;42765;44.764;19.676;2022-09-28T12:10:32;35.70;70.50
56878;DHT22;42765;44.764;19.676;2022-09-28T12:13:19;35.90;69.90
56878;DHT22;42765;44.764;19.676;2022-09-28T12:18:26;36.50;67.30
56878;DHT22;42765;44.764;19.676;2022-09-28T12:21:41;36.60;68.10
56878;DHT22;42765;44.764;19.676;2022-09-28T12:23:40;36.70;67.60
56878;DHT22;42765;44.764;19.676;2022-09-28T12:26:23;36.70;68.10
56878;DHT22;42765;44.764;19.676;2022-09-28T12:28:52;37.00;68.00
56878;DHT22;42765;44.764;19.676;2022-09-28T12:34:07;37.40;65.90
56878;DHT22;42765;44.764;19.676;2022-09-28T12:36:46;37.60;66.00
56878;DHT22;42765;44.764;19.676;2022-09-28T13:00:00;37.50;65.10
56878;DHT22;42765;44.764;19.676;2022-09-28T13:07:28;36.10;66.30
56878;DHT22;42765;44.764;19.676;2022-09-28T13:17:23;31.50;72.60
56878;DHT22;42765;44.764;19.676;2022-09-28T13:25:03;29.00;79.70
56878;DHT22;42765;44.764;19.676;2022-09-28T13:27:32;28.10;81.70
56878;DHT22;42765;44.764;19.676;2022-09-28T13:29:59;27.50;82.90
56878;DHT22;42765;44.764;19.676;2022-09-28T13:32:25;27.00;84.60
56878;DHT22;42765;44.764;19.676;2022-09-28T13:34:54;27.20;85.50
56878;DHT22;42765;44.764;19.676;2022-09-28T13:37:22;26.70;86.70
56878;DHT22;42765;44.764;19.676;2022-09-28T13:39:54;27.10;87.20
56878;DHT22;42765;44.764;19.676;2022-09-28T13:42:44;28.80;84.30
56878;DHT22;42765;44.764;19.676;2022-09-28T13:53:02;31.50;77.20
56878;DHT22;42765;44.764;19.676;2022-09-28T13:55:32;31.60;76.90
56878;DHT22;42765;44.764;19.676;2022-09-28T13:58:21;31.60;76.40
56878;DHT22;42765;44.764;19.676;2022-09-28T14:00:49;29.60;79.20
56878;DHT22;42765;44.764;19.676;2022-09-28T14:11:42;25.50;90.80
56878;DHT22;42765;44.764;19.676;2022-09-28T14:16:36;24.60;92.40
56878;DHT22;42765;44.764;19.676;2022-09-28T14:19:11;24.30;93.30
56878;DHT22;42765;44.764;19.676;2022-09-28T14:30:14;23.40;95.70
56878;DHT22;42765;44.764;19.676;2022-09-28T14:32:41;23.10;97.00
56878;DHT22;42765;44.764;19.676;2022-09-28T14:35:18;23.00;97.10
56878;DHT22;42765;44.764;19.676;2022-09-28T14:37:45;22.90;98.10
56878;DHT22;42765;44.764;19.676;2022-09-28T14:40:55;22.70;99.10
56878;DHT22;42765;44.764;19.676;2022-09-28T14:54:04;22.20;99.90
56878;DHT22;42765;44.764;19.676;2022-09-28T14:56:39;22.10;99.90
56878;DHT22;42765;44.764;19.676;2022-09-28T14:59:06;22.00;99.90
56878;DHT22;42765;44.764;19.676;2022-09-28T15:01:36;21.90;99.90
56878;DHT22;42765;44.764;19.676;2022-09-28T15:04:03;21.80;99.90
56878;DHT22;42765;44.764;19.676;2022-09-28T15:06:48;21.80;99.90
56878;DHT22;42765;44.764;19.676;2022-09-28T15:09:33;21.70;99.90
56878;DHT22;42765;44.764;19.676;2022-09-28T15:11:59;21.60;99.90
56878;DHT22;42765;44.764;19.676;2022-09-28T15:14:26;21.50;99.90
56878;DHT22;42765;44.764;19.676;2022-09-28T15:16:53;21.50;99.90
56878;DHT22;42765;44.764;19.676;2022-09-28T15:19:34;21.40;99.90
56878;DHT22;42765;44.764;19.676;2022-09-28T15:22:02;21.40;99.90
56878;DHT22;42765;44.764;19.676;2022-09-28T15:24:31;21.30;99.90
56878;DHT22;42765;44.764;19.676;2022-09-28T15:26:58;21.30;99.90
56878;DHT22;42765;44.764;19.676;2022-09-28T15:29:24;21.10;99.90
56878;DHT22;42765;44.764;19.676;2022-09-28T15:31:55;20.90;99.90
56878;DHT22;42765;44.764;19.676;2022-09-28T15:34:34;20.90;99.90
56878;DHT22;42765;44.764;19.676;2022-09-28T15:37:25;20.90;99.90
56878;DHT22;42765;44.764;19.676;2022-09-28T15:39:51;20.80;99.90
56878;DHT22;42765;44.764;19.676;2022-09-28T15:42:18;20.90;99.90
56878;DHT22;42765;44.764;19.676;2022-09-28T15:47:32;20.80;99.90
56878;DHT22;42765;44.764;19.676;2022-09-28T15:50:02;20.70;99.90
56878;DHT22;42765;44.764;19.676;2022-09-28T15:52:33;20.70;99.90
56878;DHT22;42765;44.764;19.676;2022-09-28T15:55:01;20.70;99.90
56878;DHT22;42765;44.764;19.676;2022-09-28T15:57:31;20.60;99.90
56878;DHT22;42765;44.764;19.676;2022-09-28T15:59:57;20.50;99.90
56878;DHT22;42765;44.764;19.676;2022-09-28T16:02:24;20.50;99.90
56878;DHT22;42765;44.764;19.676;2022-09-28T16:04:51;20.40;99.90
56878;DHT22;42765;44.764;19.676;2022-09-28T16:15:10;20.20;99.90
56878;DHT22;42765;44.764;19.676;2022-09-28T16:17:37;20.20;99.90
56878;DHT22;42765;44.764;19.676;2022-09-28T16:20:25;20.10;99.90
56878;DHT22;42765;44.764;19.676;2022-09-28T16:22:48;20.00;99.90
56878;DHT22;42765;44.764;19.676;2022-09-28T16:25:18;19.80;99.90
56878;DHT22;42765;44.764;19.676;2022-09-28T16:27:44;19.70;99.90
56878;DHT22;42765;44.764;19.676;2022-09-28T16:30:29;19.60;99.90
56878;DHT22;42765;44.764;19.676;2022-09-28T16:32:58;19.50;99.90
56878;DHT22;42765;44.764;19.676;2022-09-28T16:38:01;19.30;99.90
56878;DHT22;42765;44.764;19.676;2022-09-28T16:40:27;19.30;99.90
56878;DHT22;42765;44.764;19.676;2022-09-28T16:42:55;19.20;99.90
56878;DHT22;42765;44.764;19.676;2022-09-28T16:45:21;19.20;99.90
56878;DHT22;42765;44.764;19.676;2022-09-28T16:47:50;19.20;99.90
56878;DHT22;42765;44.764;19.676;2022-09-28T16:50:19;19.20;99.90
56878;DHT22;42765;44.764;19.676;2022-09-28T16:52:45;19.10;99.90
56878;DHT22;42765;44.764;19.676;2022-09-28T16:55:29;19.10;99.90
56878;DHT22;42765;44.764;19.676;2022-09-28T16:57:55;19.00;99.90
56878;DHT22;42765;44.764;19.676;2022-09-28T17:00:22;19.00;99.90
56878;DHT22;42765;44.764;19.676;2022-09-28T17:02:51;19.00;99.90
56878;DHT22;42765;44.764;19.676;2022-09-28T17:05:17;18.90;99.90
56878;DHT22;42765;44.764;19.676;2022-09-28T17:07:48;18.70;99.90
56878;DHT22;42765;44.764;19.676;2022-09-28T17:10:23;18.70;99.90
56878;DHT22;42765;44.764;19.676;2022-09-28T17:12:51;18.70;99.90
56878;DHT22;42765;44.764;19.676;2022-09-28T17:15:16;18.60;99.90
56878;DHT22;42765;44.764;19.676;2022-09-28T17:17:44;18.60;99.90
56878;DHT22;42765;44.764;19.676;2022-09-28T17:20:28;18.60;99.90
56878;DHT22;42765;44.764;19.676;2022-09-28T17:22:54;18.50;99.90
56878;DHT22;42765;44.764;19.676;2022-09-28T17:25:20;18.50;99.90
56878;DHT22;42765;44.764;19.676;2022-09-28T17:27:47;18.50;99.90
56878;DHT22;42765;44.764;19.676;2022-09-28T17:30:13;18.50;99.90
56878;DHT22;42765;44.764;19.676;2022-09-28T17:32:39;18.50;99.90
56878;DHT22;42765;44.764;19.676;2022-09-28T17:35:12;18.40;99.90
56878;DHT22;42765;44.764;19.676;2022-09-28T17:37:37;18.40;99.90
56878;DHT22;42765;44.764;19.676;2022-09-28T17:42:42;18.30;99.90
56878;DHT22;42765;44.764;19.676;2022-09-28T17:45:08;18.20;99.90
56878;DHT22;42765;44.764;19.676;2022-09-28T17:47:34;18.20;99.90
56878;DHT22;42765;44.764;19.676;2022-09-28T17:49:59;18.20;99.90
56878;DHT22;42765;44.764;19.676;2022-09-28T17:52:25;18.20;99.90
56878;DHT22;42765;44.764;19.676;2022-09-28T17:54:50;18.20;99.90
56878;DHT22;42765;44.764;19.676;2022-09-28T17:57:16;18.20;99.90
56878;DHT22;42765;44.764;19.676;2022-09-28T17:59:42;18.20;99.90
56878;DHT22;42765;44.764;19.676;2022-09-28T18:02:08;18.30;99.90
56878;DHT22;42765;44.764;19.676;2022-09-28T18:04:34;18.20;99.90
56878;DHT22;42765;44.764;19.676;2022-09-28T18:07:00;18.20;99.90
56878;DHT22;42765;44.764;19.676;2022-09-28T18:09:26;18.20;99.90
56878;DHT22;42765;44.764;19.676;2022-09-28T18:11:57;18.20;99.90
56878;DHT22;42765;44.764;19.676;2022-09-28T18:14:23;18.20;99.90
56878;DHT22;42765;44.764;19.676;2022-09-28T18:16:49;18.10;99.90
56878;DHT22;42765;44.764;19.676;2022-09-28T18:19:15;18.10;99.90
56878;DHT22;42765;44.764;19.676;2022-09-28T18:21:40;18.10;99.90
56878;DHT22;42765;44.764;19.676;2022-09-28T18:24:06;18.10;99.90
56878;DHT22;42765;44.764;19.676;2022-09-28T18:26:31;18.10;99.90
56878;DHT22;42765;44.764;19.676;2022-09-28T18:28:57;18.10;99.90
56878;DHT22;42765;44.764;19.676;2022-09-28T18:31:23;18.10;99.90
56878;DHT22;42765;44.764;19.676;2022-09-28T18:33:48;18.20;99.90